createdAt,value
2018-09-01T00:00:36.645Z,24.50
2018-09-01T00:01:40.419Z,24.50
2018-09-01T00:02:45.057Z,24.50
2018-09-01T00:03:48.144Z,24.50
2018-09-01T00:04:52.396Z,24.50
2018-09-01T00:05:55.492Z,24.50
2018-09-01T00:06:58.789Z,24.50
2018-09-01T00:08:02.374Z,24.50
2018-09-01T00:09:06.175Z,24.50
2018-09-01T00:10:10.598Z,24.50
2018-09-01T00:11:14.119Z,24.50
2018-09-01T00:12:18.018Z,24.50
2018-09-01T00:13:22.188Z,24.50
2018-09-01T00:14:26.607Z,24.50
2018-09-01T00:15:29.721Z,24.50
2018-09-01T00:16:34.540Z,24.50
2018-09-01T00:17:37.572Z,24.50
2018-09-01T00:18:40.622Z,24.50
2018-09-01T00:19:44.344Z,24.50
2018-09-01T00:20:47.416Z,24.50
2018-09-01T00:21:50.940Z,24.50
2018-09-01T00:22:53.978Z,24.50
2018-09-01T00:23:57.949Z,24.50
2018-09-01T00:25:01.045Z,24.50
2018-09-01T00:26:04.459Z,24.50
2018-09-01T00:27:07.524Z,24.50
2018-09-01T00:28:10.596Z,24.50
2018-09-01T00:29:13.718Z,24.50
2018-09-01T00:30:17.468Z,24.50
2018-09-01T00:31:20.707Z,24.50
2018-09-01T00:32:24.504Z,24.50
2018-09-01T00:33:27.656Z,24.50
2018-09-01T00:34:30.676Z,24.50
2018-09-01T00:35:33.956Z,24.50
2018-09-01T00:36:37.269Z,24.50
2018-09-01T00:37:46.531Z,24.50
2018-09-01T00:38:54.899Z,24.50
2018-09-01T00:39:58.570Z,24.50
2018-09-01T00:41:01.952Z,24.50
2018-09-01T00:42:05.272Z,24.50
2018-09-01T00:43:08.339Z,24.50
2018-09-01T00:44:11.361Z,24.50
2018-09-01T00:45:14.368Z,24.50
2018-09-01T00:46:17.448Z,24.50
2018-09-01T00:47:20.795Z,24.50
2018-09-01T00:48:23.869Z,24.50
2018-09-01T00:49:27.498Z,24.50
2018-09-01T00:50:30.584Z,24.50
2018-09-01T00:51:33.719Z,24.50
2018-09-01T00:52:37.440Z,24.50
2018-09-01T00:53:40.420Z,24.50
2018-09-01T00:54:43.492Z,24.50
2018-09-01T00:55:47.437Z,24.50
2018-09-01T00:56:51.901Z,24.40
2018-09-01T00:57:55.488Z,24.50
2018-09-01T00:58:58.823Z,24.40
2018-09-01T01:00:01.852Z,24.40
2018-09-01T01:01:04.914Z,24.40
2018-09-01T01:02:08.389Z,24.40
2018-09-01T01:03:11.411Z,24.40
2018-09-01T01:04:14.499Z,24.40
2018-09-01T01:05:17.567Z,24.40
2018-09-01T01:06:21.722Z,24.40
2018-09-01T01:07:24.736Z,24.40
2018-09-01T01:08:28.211Z,24.40
2018-09-01T01:09:31.284Z,24.40
2018-09-01T01:10:35.018Z,24.40
2018-09-01T01:11:37.979Z,24.40
2018-09-01T01:12:41.958Z,24.40
2018-09-01T01:13:45.648Z,24.40
2018-09-01T01:14:49.839Z,24.40
2018-09-01T01:15:53.554Z,24.40
2018-09-01T01:16:57.084Z,24.40
2018-09-01T01:18:00.133Z,24.40
2018-09-01T01:19:03.313Z,24.40
2018-09-01T01:20:06.669Z,24.40
2018-09-01T01:21:09.913Z,24.40
2018-09-01T01:22:13.453Z,24.40
2018-09-01T01:23:16.596Z,24.40
2018-09-01T01:24:19.664Z,24.40
2018-09-01T01:25:22.900Z,24.40
2018-09-01T01:26:26.050Z,24.40
2018-09-01T01:27:29.124Z,24.40
2018-09-01T01:28:32.635Z,24.40
2018-09-01T01:29:36.156Z,24.40
2018-09-01T01:30:39.251Z,24.40
2018-09-01T01:31:42.368Z,24.40
2018-09-01T01:32:45.439Z,24.40
2018-09-01T01:33:48.541Z,24.40
2018-09-01T01:34:51.993Z,24.40
2018-09-01T01:35:55.253Z,24.40
2018-09-01T01:36:58.917Z,24.40
2018-09-01T01:38:02.547Z,24.40
2018-09-01T01:39:06.668Z,24.40
2018-09-01T01:40:09.702Z,24.40
2018-09-01T01:41:12.689Z,24.40
2018-09-01T01:42:16.400Z,24.40
2018-09-01T01:43:19.459Z,24.40
2018-09-01T01:44:22.528Z,24.40
2018-09-01T01:45:25.596Z,24.40
2018-09-01T01:46:28.644Z,24.40
2018-09-01T01:47:31.698Z,24.40
2018-09-01T01:48:34.734Z,24.40
2018-09-01T01:49:37.812Z,24.40
2018-09-01T01:50:40.875Z,24.40
2018-09-01T01:51:43.913Z,24.40
2018-09-01T01:52:47.528Z,24.40
2018-09-01T01:53:51.069Z,24.40
2018-09-01T01:54:54.125Z,24.40
2018-09-01T01:55:57.192Z,24.40
2018-09-01T01:57:02.233Z,24.40
2018-09-01T01:58:05.651Z,24.40
2018-09-01T01:59:09.518Z,24.40
2018-09-01T02:00:12.569Z,24.40
2018-09-01T02:01:17.028Z,24.40
2018-09-01T02:02:20.268Z,24.40
2018-09-01T02:03:23.839Z,24.40
2018-09-01T02:04:26.900Z,24.40
2018-09-01T02:05:33.244Z,24.40
2018-09-01T02:06:36.289Z,24.40
2018-09-01T02:07:39.971Z,24.40
2018-09-01T02:08:43.116Z,24.40
2018-09-01T02:09:46.920Z,24.40
2018-09-01T02:10:51.061Z,24.40
2018-09-01T02:11:54.095Z,24.40
2018-09-01T02:12:57.893Z,24.40
2018-09-01T02:14:02.502Z,24.40
2018-09-01T02:15:05.811Z,24.40
2018-09-01T02:16:09.529Z,24.40
2018-09-01T02:17:13.129Z,24.40
2018-09-01T02:18:18.129Z,24.40
2018-09-01T02:19:21.230Z,24.40
2018-09-01T02:20:24.314Z,24.40
2018-09-01T02:21:27.650Z,24.20
2018-09-01T02:22:31.250Z,24.40
2018-09-01T02:23:34.822Z,24.40
2018-09-01T02:24:38.972Z,24.40
2018-09-01T02:25:44.980Z,24.40
2018-09-01T02:26:48.050Z,24.40
2018-09-01T02:27:51.136Z,24.40
2018-09-01T02:28:54.272Z,24.40
2018-09-01T02:29:58.156Z,24.40
2018-09-01T02:31:01.288Z,24.40
2018-09-01T02:32:06.149Z,24.30
2018-09-01T02:33:09.213Z,24.30
2018-09-01T02:34:12.384Z,24.30
2018-09-01T02:35:16.425Z,24.30
2018-09-01T02:36:19.786Z,24.30
2018-09-01T02:37:24.569Z,24.30
2018-09-01T02:38:28.856Z,24.30
2018-09-01T02:39:31.895Z,24.30
2018-09-01T02:40:34.925Z,24.30
2018-09-01T02:41:39.355Z,24.30
2018-09-01T02:42:42.441Z,24.30
2018-09-01T02:43:46.124Z,24.30
2018-09-01T02:44:50.528Z,24.30
2018-09-01T02:45:54.269Z,24.30
2018-09-01T02:46:57.864Z,24.30
2018-09-01T02:48:00.911Z,24.30
2018-09-01T02:49:03.967Z,24.30
2018-09-01T02:50:08.580Z,24.30
2018-09-01T02:51:12.759Z,24.30
2018-09-01T02:52:16.445Z,24.30
2018-09-01T02:53:20.203Z,24.30
2018-09-01T02:54:24.008Z,24.30
2018-09-01T02:55:27.000Z,24.30
2018-09-01T02:56:30.076Z,24.30
2018-09-01T02:57:33.396Z,24.30
2018-09-01T02:58:37.638Z,24.30
2018-09-01T02:59:40.719Z,24.30
2018-09-01T03:00:43.808Z,24.30
2018-09-01T03:01:46.844Z,24.30
2018-09-01T03:02:50.723Z,24.30
2018-09-01T03:03:54.396Z,24.30
2018-09-01T03:04:57.456Z,24.30
2018-09-01T03:06:00.505Z,24.30
2018-09-01T03:07:03.603Z,24.30
2018-09-01T03:08:06.725Z,24.30
2018-09-01T03:09:09.736Z,24.30
2018-09-01T03:10:12.800Z,24.30
2018-09-01T03:11:15.823Z,24.30
2018-09-01T03:12:18.937Z,24.30
2018-09-01T03:13:22.488Z,24.30
2018-09-01T03:14:26.680Z,24.30
2018-09-01T03:15:29.693Z,24.30
2018-09-01T03:16:33.459Z,24.30
2018-09-01T03:17:36.532Z,24.30
2018-09-01T03:18:39.536Z,24.30
2018-09-01T03:19:42.779Z,24.30
2018-09-01T03:20:47.362Z,24.30
2018-09-01T03:21:50.409Z,24.30
2018-09-01T03:22:53.464Z,24.30
2018-09-01T03:23:56.507Z,24.30
2018-09-01T03:24:59.553Z,24.30
2018-09-01T03:26:02.620Z,24.30
2018-09-01T03:27:05.658Z,24.30
2018-09-01T03:28:08.720Z,24.30
2018-09-01T03:29:13.971Z,24.30
2018-09-01T03:30:16.993Z,24.30
2018-09-01T03:31:20.052Z,24.30
2018-09-01T03:32:23.050Z,24.30
2018-09-01T03:33:26.611Z,24.30
2018-09-01T03:34:30.223Z,24.30
2018-09-01T03:35:34.101Z,24.30
2018-09-01T03:36:37.433Z,24.30
2018-09-01T03:37:42.151Z,24.30
2018-09-01T03:38:46.200Z,24.30
2018-09-01T03:39:49.308Z,24.30
2018-09-01T03:40:52.423Z,24.30
2018-09-01T03:41:55.532Z,24.30
2018-09-01T03:42:59.252Z,24.30
2018-09-01T03:44:02.417Z,24.30
2018-09-01T03:45:06.044Z,24.30
2018-09-01T03:46:09.104Z,24.30
2018-09-01T03:47:12.199Z,24.30
2018-09-01T03:48:15.197Z,24.30
2018-09-01T03:49:18.277Z,24.30
2018-09-01T03:50:21.453Z,24.30
2018-09-01T03:51:24.541Z,24.30
2018-09-01T03:52:27.579Z,24.30
2018-09-01T03:53:31.791Z,24.30
2018-09-01T03:54:34.954Z,24.30
2018-09-01T03:55:38.606Z,24.30
2018-09-01T03:56:41.712Z,24.30
2018-09-01T03:57:44.725Z,24.30
2018-09-01T03:58:48.071Z,24.30
2018-09-01T03:59:51.076Z,24.30
2018-09-01T04:00:54.108Z,24.20
2018-09-01T04:01:57.127Z,24.20
2018-09-01T04:03:00.371Z,24.30
2018-09-01T04:04:03.785Z,24.30
2018-09-01T04:05:07.563Z,24.30
2018-09-01T04:06:11.214Z,24.30
2018-09-01T04:07:14.239Z,24.30
2018-09-01T04:08:17.441Z,24.20
2018-09-01T04:09:20.468Z,24.20
2018-09-01T04:10:24.668Z,24.30
2018-09-01T04:11:27.675Z,24.20
2018-09-01T04:12:30.750Z,24.20
2018-09-01T04:13:33.800Z,24.20
2018-09-01T04:14:36.823Z,24.20
2018-09-01T04:15:40.165Z,24.20
2018-09-01T04:16:43.485Z,24.20
2018-09-01T04:17:46.689Z,24.20
2018-09-01T04:18:49.699Z,24.20
2018-09-01T04:19:52.792Z,24.20
2018-09-01T04:20:55.814Z,24.20
2018-09-01T04:21:59.429Z,24.20
2018-09-01T04:23:02.403Z,24.20
2018-09-01T04:24:05.684Z,24.20
2018-09-01T04:25:08.730Z,24.20
2018-09-01T04:26:11.768Z,24.20
2018-09-01T04:27:14.880Z,24.20
2018-09-01T04:28:17.912Z,24.20
2018-09-01T04:29:20.949Z,24.20
2018-09-01T04:30:24.951Z,24.20
2018-09-01T04:31:27.978Z,24.20
2018-09-01T04:32:31.280Z,24.20
2018-09-01T04:33:34.891Z,24.20
2018-09-01T04:34:39.347Z,24.20
2018-09-01T04:35:42.340Z,24.20
2018-09-01T04:36:46.815Z,24.20
2018-09-01T04:37:49.908Z,24.20
2018-09-01T04:38:52.993Z,24.20
2018-09-01T04:39:56.172Z,24.20
2018-09-01T04:40:59.463Z,24.20
2018-09-01T04:42:02.472Z,24.20
2018-09-01T04:43:05.455Z,24.20
2018-09-01T04:44:09.636Z,24.20
2018-09-01T04:45:12.612Z,24.20
2018-09-01T04:46:17.083Z,24.20
2018-09-01T04:47:20.492Z,24.20
2018-09-01T04:48:23.741Z,24.20
2018-09-01T04:49:26.767Z,24.20
2018-09-01T04:50:30.745Z,24.20
2018-09-01T04:51:33.899Z,24.20
2018-09-01T04:52:37.424Z,24.20
2018-09-01T04:53:40.444Z,24.20
2018-09-01T04:54:43.504Z,24.20
2018-09-01T04:55:46.573Z,24.20
2018-09-01T04:56:49.723Z,24.20
2018-09-01T04:57:52.716Z,24.20
2018-09-01T04:58:56.009Z,24.20
2018-09-01T04:59:59.655Z,24.20
2018-09-01T05:01:02.769Z,24.20
2018-09-01T05:02:07.211Z,24.20
2018-09-01T05:03:10.247Z,24.20
2018-09-01T05:04:13.643Z,24.20
2018-09-01T05:05:17.940Z,24.20
2018-09-01T05:06:22.012Z,24.20
2018-09-01T05:07:25.043Z,24.20
2018-09-01T05:08:28.051Z,24.20
2018-09-01T05:09:31.109Z,24.20
2018-09-01T05:10:34.104Z,24.20
2018-09-01T05:11:37.147Z,24.20
2018-09-01T05:12:40.516Z,24.20
2018-09-01T05:13:43.557Z,24.20
2018-09-01T05:14:46.606Z,24.20
2018-09-01T05:15:50.303Z,24.20
2018-09-01T05:16:53.345Z,24.20
2018-09-01T05:17:56.429Z,24.20
2018-09-01T05:18:59.436Z,24.20
2018-09-01T05:20:02.510Z,24.20
2018-09-01T05:21:05.535Z,24.20
2018-09-01T05:22:08.560Z,24.20
2018-09-01T05:23:12.072Z,24.20
2018-09-01T05:24:15.429Z,24.20
2018-09-01T05:25:19.322Z,24.20
2018-09-01T05:26:22.512Z,24.20
2018-09-01T05:27:28.640Z,24.20
2018-09-01T05:28:31.729Z,24.20
2018-09-01T05:29:34.902Z,24.20
2018-09-01T05:30:37.904Z,24.20
2018-09-01T05:31:40.952Z,24.20
2018-09-01T05:32:44.360Z,24.20
2018-09-01T05:33:47.452Z,24.20
2018-09-01T05:34:50.553Z,24.20
2018-09-01T05:35:54.208Z,24.20
2018-09-01T05:36:57.236Z,24.20
2018-09-01T05:38:00.315Z,24.20
2018-09-01T05:39:04.960Z,24.20
2018-09-01T05:40:08.041Z,24.20
2018-09-01T05:41:11.030Z,24.20
2018-09-01T05:42:14.036Z,24.20
2018-09-01T05:43:18.049Z,24.20
2018-09-01T05:44:21.075Z,24.20
2018-09-01T05:45:24.099Z,24.20
2018-09-01T05:46:27.906Z,24.20
2018-09-01T05:47:30.946Z,24.20
2018-09-01T05:48:34.880Z,24.20
2018-09-01T05:49:37.877Z,24.10
2018-09-01T05:50:40.926Z,24.20
2018-09-01T05:51:43.944Z,24.20
2018-09-01T05:52:47.735Z,24.20
2018-09-01T05:53:50.807Z,24.20
2018-09-01T05:54:54.085Z,24.20
2018-09-01T05:55:57.175Z,24.20
2018-09-01T05:57:00.188Z,24.20
2018-09-01T05:58:03.234Z,24.20
2018-09-01T05:59:06.878Z,24.20
2018-09-01T06:00:09.920Z,24.20
2018-09-01T06:01:12.950Z,24.10
2018-09-01T06:02:16.053Z,24.20
2018-09-01T06:03:19.350Z,24.20
2018-09-01T06:04:22.596Z,24.20
2018-09-01T06:05:25.589Z,24.20
2018-09-01T06:06:28.734Z,24.20
2018-09-01T06:07:32.210Z,24.20
2018-09-01T06:08:35.216Z,24.10
2018-09-01T06:09:38.395Z,24.20
2018-09-01T06:10:41.419Z,24.20
2018-09-01T06:11:44.460Z,24.20
2018-09-01T06:12:47.557Z,24.20
2018-09-01T06:13:50.523Z,24.10
2018-09-01T06:14:53.560Z,24.20
2018-09-01T06:15:56.609Z,24.20
2018-09-01T06:16:59.827Z,24.20
2018-09-01T06:18:02.896Z,24.20
2018-09-01T06:19:05.960Z,24.20
2018-09-01T06:20:09.383Z,24.20
2018-09-01T06:21:12.424Z,24.20
2018-09-01T06:22:15.441Z,24.20
2018-09-01T06:23:18.502Z,24.10
2018-09-01T06:24:21.481Z,24.20
2018-09-01T06:25:24.547Z,24.20
2018-09-01T06:26:27.548Z,24.20
2018-09-01T06:27:33.966Z,24.20
2018-09-01T06:29:39.520Z,24.20
2018-09-01T06:30:44.897Z,24.20
2018-09-01T06:31:52.112Z,24.10
2018-09-01T06:32:55.694Z,24.10
2018-09-01T06:34:00.292Z,24.10
2018-09-01T06:35:04.643Z,24.10
2018-09-01T06:36:08.648Z,24.10
2018-09-01T06:37:14.049Z,24.10
2018-09-01T06:38:17.056Z,24.10
2018-09-01T06:39:20.084Z,24.10
2018-09-01T06:40:23.132Z,24.10
2018-09-01T06:41:26.099Z,24.10
2018-09-01T06:42:29.136Z,24.10
2018-09-01T06:43:32.971Z,24.10
2018-09-01T06:44:36.621Z,24.10
2018-09-01T06:45:39.688Z,24.10
2018-09-01T06:46:42.709Z,24.10
2018-09-01T06:47:45.717Z,24.20
2018-09-01T06:48:48.854Z,24.20
2018-09-01T06:49:52.340Z,24.20
2018-09-01T06:50:55.353Z,24.20
2018-09-01T06:51:58.505Z,24.20
2018-09-01T06:53:02.551Z,24.20
2018-09-01T06:54:05.900Z,24.20
2018-09-01T06:55:08.964Z,24.20
2018-09-01T06:56:12.003Z,24.20
2018-09-01T06:57:15.704Z,24.20
2018-09-01T06:58:19.954Z,24.20
2018-09-01T06:59:23.481Z,24.20
2018-09-01T07:00:27.388Z,24.20
2018-09-01T07:01:30.407Z,24.20
2018-09-01T07:02:33.843Z,24.20
2018-09-01T07:03:36.853Z,24.20
2018-09-01T07:04:40.383Z,24.20
2018-09-01T07:05:44.119Z,24.20
2018-09-01T07:06:47.153Z,24.20
2018-09-01T07:07:50.586Z,24.20
2018-09-01T07:08:53.872Z,24.20
2018-09-01T07:09:56.984Z,24.20
2018-09-01T07:11:00.623Z,24.20
2018-09-01T07:12:04.152Z,24.20
2018-09-01T07:13:07.162Z,24.20
2018-09-01T07:14:11.535Z,24.20
2018-09-01T07:15:15.935Z,24.20
2018-09-01T07:16:19.627Z,24.10
2018-09-01T07:17:22.728Z,24.10
2018-09-01T07:18:26.952Z,24.10
2018-09-01T07:19:30.864Z,24.00
2018-09-01T07:20:34.997Z,24.00
2018-09-01T07:21:38.057Z,24.00
2018-09-01T07:22:41.700Z,23.90
2018-09-01T07:23:45.488Z,23.80
2018-09-01T07:24:48.520Z,23.80
2018-09-01T07:25:51.616Z,23.80
2018-09-01T07:26:54.643Z,23.70
2018-09-01T07:27:57.696Z,23.70
2018-09-01T07:29:01.081Z,23.70
2018-09-01T07:30:04.252Z,23.60
2018-09-01T07:31:07.572Z,23.60
2018-09-01T07:32:10.270Z,23.60
2018-09-01T07:33:13.372Z,23.60
2018-09-01T07:34:16.417Z,23.60
2018-09-01T07:35:19.481Z,23.60
2018-09-01T07:36:22.494Z,23.50
2018-09-01T07:37:25.639Z,23.50
2018-09-01T07:38:28.745Z,23.50
2018-09-01T07:39:32.007Z,23.50
2018-09-01T07:40:35.076Z,23.40
2018-09-01T07:41:38.768Z,23.40
2018-09-01T07:42:41.743Z,23.40
2018-09-01T07:43:44.817Z,23.30
2018-09-01T07:44:47.876Z,23.30
2018-09-01T07:45:50.903Z,23.30
2018-09-01T07:46:53.908Z,23.20
2018-09-01T07:47:56.968Z,23.20
2018-09-01T07:49:00.264Z,23.20
2018-09-01T07:50:03.358Z,23.10
2018-09-01T07:51:07.048Z,23.10
2018-09-01T07:52:10.115Z,23.10
2018-09-01T07:53:13.192Z,23.00
2018-09-01T07:54:16.664Z,23.00
2018-09-01T07:55:19.744Z,23.00
2018-09-01T07:56:23.989Z,23.00
2018-09-01T07:57:26.984Z,23.00
2018-09-01T07:58:30.005Z,23.00
2018-09-01T07:59:33.141Z,23.00
2018-09-01T08:00:36.208Z,23.00
2018-09-01T08:01:39.278Z,23.00
2018-09-01T08:02:42.728Z,23.10
2018-09-01T08:03:46.080Z,23.10
2018-09-01T08:04:49.311Z,23.10
2018-09-01T08:05:53.188Z,23.10
2018-09-01T08:06:56.590Z,23.10
2018-09-01T08:08:01.029Z,23.20
2018-09-01T08:09:12.494Z,23.20
2018-09-01T08:10:17.816Z,23.20
2018-09-01T08:11:24.605Z,23.20
2018-09-01T08:12:28.792Z,23.20
2018-09-01T08:13:31.791Z,23.20
2018-09-01T08:14:34.865Z,23.20
2018-09-01T08:15:37.853Z,23.10
2018-09-01T08:16:41.143Z,23.10
2018-09-01T08:17:44.181Z,23.10
2018-09-01T08:18:47.229Z,23.10
2018-09-01T08:19:50.256Z,23.10
2018-09-01T08:20:53.316Z,23.10
2018-09-01T08:21:56.315Z,23.10
2018-09-01T08:22:59.403Z,23.10
2018-09-01T08:24:02.461Z,23.10
2018-09-01T08:25:05.568Z,23.10
2018-09-01T08:26:08.670Z,23.10
2018-09-01T08:27:11.807Z,23.10
2018-09-01T08:28:14.864Z,23.10
2018-09-01T08:29:17.815Z,23.10
2018-09-01T08:30:20.827Z,23.60
2018-09-01T08:31:23.901Z,23.20
2018-09-01T08:32:26.916Z,23.20
2018-09-01T08:33:29.973Z,23.30
2018-09-01T08:34:32.965Z,23.30
2018-09-01T08:35:35.973Z,23.30
2018-09-01T08:36:39.051Z,23.30
2018-09-01T08:37:42.075Z,23.30
2018-09-01T08:38:45.145Z,23.30
2018-09-01T08:39:48.232Z,23.30
2018-09-01T08:40:51.252Z,23.40
2018-09-01T08:41:54.322Z,23.40
2018-09-01T08:42:57.400Z,23.40
2018-09-01T08:44:00.422Z,23.40
2018-09-01T08:45:03.438Z,23.40
2018-09-01T08:46:06.469Z,23.40
2018-09-01T08:47:09.540Z,23.40
2018-09-01T08:48:12.524Z,23.40
2018-09-01T08:49:15.762Z,23.40
2018-09-01T08:50:19.043Z,23.40
2018-09-01T08:51:22.007Z,23.50
2018-09-01T08:52:24.992Z,23.40
2018-09-01T08:53:28.061Z,23.50
2018-09-01T08:54:31.086Z,23.50
2018-09-01T08:55:34.083Z,23.50
2018-09-01T08:56:37.152Z,23.50
2018-09-01T08:57:40.133Z,23.50
2018-09-01T08:58:43.140Z,23.50
2018-09-01T08:59:46.387Z,23.50
2018-09-01T09:00:49.445Z,23.50
2018-09-01T09:01:52.664Z,23.60
2018-09-01T09:02:55.648Z,23.50
2018-09-01T09:03:58.628Z,23.50
2018-09-01T09:05:01.744Z,23.50
2018-09-01T09:06:04.802Z,23.60
2018-09-01T09:07:07.901Z,23.60
2018-09-01T09:08:10.917Z,23.60
2018-09-01T09:09:13.928Z,23.60
2018-09-01T09:10:17.067Z,23.60
2018-09-01T09:11:20.194Z,23.60
2018-09-01T09:12:23.241Z,23.60
2018-09-01T09:13:26.235Z,23.70
2018-09-01T09:14:29.256Z,23.70
2018-09-01T09:15:32.244Z,23.60
2018-09-01T09:16:35.288Z,23.70
2018-09-01T09:17:38.364Z,23.70
2018-09-01T09:18:41.617Z,23.70
2018-09-01T09:19:44.615Z,23.70
2018-09-01T09:20:47.605Z,23.70
2018-09-01T09:21:50.959Z,23.70
2018-09-01T09:22:54.020Z,23.70
2018-09-01T09:23:57.045Z,23.70
2018-09-01T09:25:00.092Z,23.70
2018-09-01T09:26:03.091Z,23.70
2018-09-01T09:27:06.455Z,23.80
2018-09-01T09:28:09.436Z,23.70
2018-09-01T09:29:12.515Z,23.70
2018-09-01T09:30:15.499Z,23.70
2018-09-01T09:31:18.540Z,23.60
2018-09-01T09:32:21.568Z,23.50
2018-09-01T09:33:24.549Z,23.40
2018-09-01T09:34:27.739Z,23.40
2018-09-01T09:35:30.803Z,23.30
2018-09-01T09:36:33.852Z,23.20
2018-09-01T09:37:36.872Z,23.10
2018-09-01T09:38:39.940Z,23.00
2018-09-01T09:39:42.953Z,23.00
2018-09-01T09:40:46.337Z,22.90
2018-09-01T09:41:49.407Z,22.90
2018-09-01T09:42:52.401Z,22.80
2018-09-01T09:43:55.529Z,22.80
2018-09-01T09:44:58.533Z,22.80
2018-09-01T09:46:01.678Z,22.70
2018-09-01T09:47:04.975Z,22.70
2018-09-01T09:48:07.981Z,22.60
2018-09-01T09:49:11.006Z,22.60
2018-09-01T09:50:14.042Z,22.60
2018-09-01T09:51:17.054Z,22.50
2018-09-01T09:52:20.072Z,22.50
2018-09-01T09:53:23.110Z,22.50
2018-09-01T09:54:26.161Z,22.50
2018-09-01T09:55:29.139Z,22.50
2018-09-01T09:56:32.155Z,22.40
2018-09-01T09:57:35.186Z,22.40
2018-09-01T09:58:38.284Z,22.40
2018-09-01T09:59:41.307Z,22.40
2018-09-01T10:00:49.738Z,22.40
2018-09-01T10:01:56.998Z,22.40
2018-09-01T10:03:00.065Z,22.30
2018-09-01T10:04:03.103Z,22.40
2018-09-01T10:05:06.410Z,22.30
2018-09-01T10:06:09.445Z,22.30
2018-09-01T10:07:12.469Z,22.30
2018-09-01T10:08:15.531Z,22.30
2018-09-01T10:09:18.566Z,22.30
2018-09-01T10:10:21.584Z,22.30
2018-09-01T10:11:24.592Z,22.30
2018-09-01T10:12:27.634Z,22.30
2018-09-01T10:13:30.656Z,22.30
2018-09-01T10:14:33.697Z,22.20
2018-09-01T10:15:36.710Z,22.30
2018-09-01T10:16:40.309Z,22.30
2018-09-01T10:17:43.335Z,22.20
2018-09-01T10:18:46.353Z,22.30
2018-09-01T10:19:49.389Z,22.30
2018-09-01T10:20:52.475Z,22.30
2018-09-01T10:21:55.504Z,22.30
2018-09-01T10:22:58.537Z,22.30
2018-09-01T10:24:01.552Z,22.20
2018-09-01T10:25:04.577Z,22.20
2018-09-01T10:26:07.808Z,22.20
2018-09-01T10:27:10.917Z,22.20
2018-09-01T10:28:13.824Z,22.20
2018-09-01T10:29:17.016Z,22.20
2018-09-01T10:30:20.029Z,22.20
2018-09-01T10:31:23.035Z,22.20
2018-09-01T10:32:26.067Z,22.20
2018-09-01T10:33:29.259Z,22.20
2018-09-01T10:34:32.312Z,22.20
2018-09-01T10:35:35.335Z,22.20
2018-09-01T10:36:38.363Z,22.20
2018-09-01T10:37:42.396Z,22.20
2018-09-01T10:38:45.468Z,22.20
2018-09-01T10:39:48.478Z,22.20
2018-09-01T10:40:51.495Z,22.20
2018-09-01T10:41:54.500Z,22.20
2018-09-01T10:42:57.488Z,22.20
2018-09-01T10:44:00.596Z,22.20
2018-09-01T10:45:03.619Z,22.20
2018-09-01T10:46:06.816Z,22.20
2018-09-01T10:47:09.812Z,22.20
2018-09-01T10:48:12.842Z,22.20
2018-09-01T10:49:15.864Z,22.20
2018-09-01T10:50:18.852Z,22.20
2018-09-01T10:51:22.167Z,22.20
2018-09-01T10:52:25.149Z,22.20
2018-09-01T10:53:28.159Z,22.30
2018-09-01T10:54:31.203Z,22.30
2018-09-01T10:55:34.208Z,22.40
2018-09-01T10:56:37.209Z,22.40
2018-09-01T10:57:40.215Z,22.50
2018-09-01T10:58:43.298Z,22.50
2018-09-01T10:59:46.488Z,22.60
2018-09-01T11:00:49.536Z,22.60
2018-09-01T11:01:52.563Z,22.70
2018-09-01T11:02:55.772Z,22.70
2018-09-01T11:03:58.922Z,22.80
2018-09-01T11:05:02.044Z,22.80
2018-09-01T11:06:05.027Z,22.80
2018-09-01T11:07:08.168Z,22.90
2018-09-01T11:08:11.245Z,22.90
2018-09-01T11:09:14.260Z,22.90
2018-09-01T11:10:17.707Z,23.00
2018-09-01T11:11:20.799Z,23.00
2018-09-01T11:12:23.879Z,23.00
2018-09-01T11:13:26.915Z,23.10
2018-09-01T11:14:29.907Z,23.10
2018-09-01T11:15:33.034Z,23.10
2018-09-01T11:16:36.080Z,23.10
2018-09-01T11:17:39.123Z,23.10
2018-09-01T11:18:42.089Z,23.20
2018-09-01T11:19:45.158Z,23.20
2018-09-01T11:20:48.249Z,23.20
2018-09-01T11:21:51.354Z,23.20
2018-09-01T11:22:54.405Z,23.30
2018-09-01T11:23:57.548Z,23.30
2018-09-01T11:25:00.775Z,23.30
2018-09-01T11:26:03.906Z,23.30
2018-09-01T11:27:07.022Z,23.30
2018-09-01T11:28:10.161Z,23.30
2018-09-01T11:29:13.159Z,23.30
2018-09-01T11:30:16.148Z,23.30
2018-09-01T11:31:19.233Z,23.40
2018-09-01T11:32:22.265Z,23.30
2018-09-01T11:33:25.453Z,23.40
2018-09-01T11:34:28.476Z,23.30
2018-09-01T11:35:31.519Z,23.40
2018-09-01T11:36:34.660Z,23.40
2018-09-01T11:37:37.683Z,23.40
2018-09-01T11:38:40.688Z,23.40
2018-09-01T11:39:43.709Z,23.40
2018-09-01T11:40:47.518Z,23.40
2018-09-01T11:41:50.580Z,23.40
2018-09-01T11:42:53.835Z,23.40
2018-09-01T11:43:56.710Z,23.30
2018-09-01T11:44:59.765Z,23.30
2018-09-01T11:46:02.872Z,23.40
2018-09-01T11:47:06.037Z,23.40
2018-09-01T11:48:09.189Z,23.40
2018-09-01T11:49:12.187Z,23.30
2018-09-01T11:50:15.216Z,23.30
2018-09-01T11:51:18.232Z,23.30
2018-09-01T11:52:21.253Z,23.20
2018-09-01T11:53:24.305Z,23.20
2018-09-01T11:54:27.291Z,23.30
2018-09-01T11:55:30.293Z,23.30
2018-09-01T11:56:33.272Z,23.30
2018-09-01T11:57:36.444Z,23.30
2018-09-01T11:58:41.172Z,23.40
2018-09-01T11:59:48.214Z,23.30
2018-09-01T12:00:52.793Z,23.40
2018-09-01T12:01:55.840Z,23.40
2018-09-01T12:02:58.884Z,23.30
2018-09-01T12:04:02.029Z,23.30
2018-09-01T12:05:05.093Z,23.30
2018-09-01T12:06:08.185Z,23.30
2018-09-01T12:07:11.107Z,23.30
2018-09-01T12:08:14.187Z,23.30
2018-09-01T12:09:17.238Z,23.30
2018-09-01T12:10:20.311Z,23.30
2018-09-01T12:11:23.625Z,23.40
2018-09-01T12:12:26.689Z,23.40
2018-09-01T12:13:29.776Z,23.30
2018-09-01T12:14:32.889Z,23.40
2018-09-01T12:15:35.979Z,23.40
2018-09-01T12:16:39.084Z,23.40
2018-09-01T12:17:42.124Z,23.40
2018-09-01T12:18:45.168Z,23.40
2018-09-01T12:19:48.836Z,23.40
2018-09-01T12:20:51.876Z,23.40
2018-09-01T12:21:54.867Z,23.40
2018-09-01T12:22:57.865Z,23.40
2018-09-01T12:24:00.953Z,23.40
2018-09-01T12:25:03.944Z,23.50
2018-09-01T12:26:06.995Z,23.50
2018-09-01T12:27:09.998Z,23.50
2018-09-01T12:28:13.014Z,23.50
2018-09-01T12:29:16.153Z,23.50
2018-09-01T12:30:19.205Z,23.50
2018-09-01T12:31:22.187Z,23.50
2018-09-01T12:32:25.184Z,23.50
2018-09-01T12:33:28.183Z,23.50
2018-09-01T12:34:31.363Z,23.50
2018-09-01T12:35:34.413Z,23.50
2018-09-01T12:36:37.500Z,23.50
2018-09-01T12:37:40.683Z,23.60
2018-09-01T12:38:43.684Z,23.60
2018-09-01T12:39:46.725Z,23.60
2018-09-01T12:40:49.764Z,23.60
2018-09-01T12:41:52.791Z,23.60
2018-09-01T12:42:55.791Z,23.60
2018-09-01T12:43:58.844Z,23.60
2018-09-01T12:45:01.848Z,23.60
2018-09-01T12:46:04.923Z,23.60
2018-09-01T12:47:08.027Z,23.60
2018-09-01T12:48:11.056Z,23.60
2018-09-01T12:49:14.156Z,23.70
2018-09-01T12:50:17.288Z,23.60
2018-09-01T12:51:20.329Z,23.70
2018-09-01T12:52:23.556Z,23.70
2018-09-01T12:53:26.673Z,23.70
2018-09-01T12:54:29.830Z,23.70
2018-09-01T12:55:32.807Z,23.70
2018-09-01T12:56:35.923Z,23.70
2018-09-01T12:57:38.936Z,23.70
2018-09-01T12:58:41.916Z,23.70
2018-09-01T12:59:45.082Z,23.70
2018-09-01T13:00:48.256Z,23.70
2018-09-01T13:01:51.260Z,23.70
2018-09-01T13:02:54.304Z,23.70
2018-09-01T13:03:57.395Z,23.60
2018-09-01T13:05:00.405Z,23.60
2018-09-01T13:06:03.464Z,23.60
2018-09-01T13:07:06.596Z,23.70
2018-09-01T13:08:09.642Z,23.70
2018-09-01T13:09:12.883Z,23.60
2018-09-01T13:10:15.906Z,23.60
2018-09-01T13:11:18.942Z,23.60
2018-09-01T13:12:22.000Z,23.60
2018-09-01T13:13:25.049Z,23.60
2018-09-01T13:14:28.128Z,23.60
2018-09-01T13:15:31.095Z,23.60
2018-09-01T13:16:34.127Z,23.60
2018-09-01T13:17:37.151Z,23.50
2018-09-01T13:18:40.336Z,23.50
2018-09-01T13:19:43.848Z,23.40
2018-09-01T13:20:46.852Z,23.40
2018-09-01T13:21:49.916Z,23.40
2018-09-01T13:22:52.924Z,23.40
2018-09-01T13:23:56.004Z,23.40
2018-09-01T13:24:59.039Z,23.40
2018-09-01T13:26:02.207Z,23.40
2018-09-01T13:27:05.312Z,23.40
2018-09-01T13:28:08.300Z,23.30
2018-09-01T13:29:11.350Z,23.30
2018-09-01T13:30:14.379Z,23.30
2018-09-01T13:31:17.460Z,23.30
2018-09-01T13:32:20.518Z,23.30
2018-09-01T13:33:23.537Z,23.30
2018-09-01T13:34:26.637Z,23.30
2018-09-01T13:35:29.598Z,23.40
2018-09-01T13:36:32.607Z,23.40